sensor_id;sensor_type;location;lat;lon;timestamp;P1;durP1;ratioP1;P2;durP2;ratioP2
5010;SDS011;2524;54.364;10.072;2023-07-22T00:00:19;3.57;;;3.37;;
5010;SDS011;2524;54.364;10.072;2023-07-22T00:02:47;3.67;;;3.40;;
5010;SDS011;2524;54.364;10.072;2023-07-22T00:05:13;4.03;;;3.60;;
5010;SDS011;2524;54.364;10.072;2023-07-22T00:07:38;3.87;;;3.67;;
5010;SDS011;2524;54.364;10.072;2023-07-22T00:10:05;4.70;;;3.60;;
5010;SDS011;2524;54.364;10.072;2023-07-22T00:12:34;3.33;;;3.13;;
5010;SDS011;2524;54.364;10.072;2023-07-22T00:15:00;3.97;;;3.60;;
5010;SDS011;2524;54.364;10.072;2023-07-22T00:17:26;3.83;;;3.53;;
5010;SDS011;2524;54.364;10.072;2023-07-22T00:19:51;3.43;;;3.23;;
5010;SDS011;2524;54.364;10.072;2023-07-22T00:22:17;3.50;;;3.30;;
5010;SDS011;2524;54.364;10.072;2023-07-22T00:24:42;5.00;;;4.60;;
5010;SDS011;2524;54.364;10.072;2023-07-22T00:27:08;4.57;;;3.97;;
5010;SDS011;2524;54.364;10.072;2023-07-22T00:29:34;4.30;;;4.00;;
5010;SDS011;2524;54.364;10.072;2023-07-22T00:32:00;4.67;;;4.30;;
5010;SDS011;2524;54.364;10.072;2023-07-22T00:34:25;3.93;;;3.73;;
5010;SDS011;2524;54.364;10.072;2023-07-22T00:36:51;3.13;;;3.00;;
5010;SDS011;2524;54.364;10.072;2023-07-22T00:39:17;3.50;;;3.30;;
5010;SDS011;2524;54.364;10.072;2023-07-22T00:41:43;3.10;;;2.90;;
5010;SDS011;2524;54.364;10.072;2023-07-22T00:44:10;3.80;;;3.50;;
5010;SDS011;2524;54.364;10.072;2023-07-22T00:46:37;3.20;;;3.00;;
5010;SDS011;2524;54.364;10.072;2023-07-22T00:49:04;2.80;;;2.60;;
5010;SDS011;2524;54.364;10.072;2023-07-22T00:51:31;5.10;;;4.70;;
5010;SDS011;2524;54.364;10.072;2023-07-22T00:53:57;5.20;;;4.80;;
5010;SDS011;2524;54.364;10.072;2023-07-22T00:56:23;4.27;;;3.97;;
5010;SDS011;2524;54.364;10.072;2023-07-22T00:58:49;4.80;;;3.80;;
5010;SDS011;2524;54.364;10.072;2023-07-22T01:01:16;4.13;;;3.83;;
5010;SDS011;2524;54.364;10.072;2023-07-22T01:03:42;4.50;;;4.10;;
5010;SDS011;2524;54.364;10.072;2023-07-22T01:06:08;3.90;;;3.70;;
5010;SDS011;2524;54.364;10.072;2023-07-22T01:08:34;4.27;;;3.87;;
5010;SDS011;2524;54.364;10.072;2023-07-22T01:11:00;4.70;;;4.30;;
5010;SDS011;2524;54.364;10.072;2023-07-22T01:13:25;3.67;;;3.40;;
5010;SDS011;2524;54.364;10.072;2023-07-22T01:15:51;3.87;;;3.63;;
5010;SDS011;2524;54.364;10.072;2023-07-22T01:18:17;4.43;;;4.17;;
5010;SDS011;2524;54.364;10.072;2023-07-22T01:20:43;4.00;;;3.60;;
5010;SDS011;2524;54.364;10.072;2023-07-22T01:23:09;4.97;;;4.47;;
5010;SDS011;2524;54.364;10.072;2023-07-22T01:25:36;5.13;;;4.00;;
5010;SDS011;2524;54.364;10.072;2023-07-22T01:28:01;3.80;;;3.50;;
5010;SDS011;2524;54.364;10.072;2023-07-22T01:30:27;4.30;;;3.90;;
5010;SDS011;2524;54.364;10.072;2023-07-22T01:32:53;4.23;;;3.93;;
5010;SDS011;2524;54.364;10.072;2023-07-22T01:35:18;3.67;;;3.00;;
5010;SDS011;2524;54.364;10.072;2023-07-22T01:37:44;3.60;;;3.40;;
5010;SDS011;2524;54.364;10.072;2023-07-22T01:40:10;3.40;;;3.20;;
5010;SDS011;2524;54.364;10.072;2023-07-22T01:42:37;4.10;;;2.87;;
5010;SDS011;2524;54.364;10.072;2023-07-22T01:45:03;3.50;;;3.20;;
5010;SDS011;2524;54.364;10.072;2023-07-22T01:47:32;3.70;;;3.40;;
5010;SDS011;2524;54.364;10.072;2023-07-22T01:50:02;3.60;;;3.30;;
5010;SDS011;2524;54.364;10.072;2023-07-22T01:52:28;3.50;;;3.20;;
5010;SDS011;2524;54.364;10.072;2023-07-22T01:54:54;3.17;;;2.87;;
5010;SDS011;2524;54.364;10.072;2023-07-22T01:57:20;3.00;;;2.80;;
5010;SDS011;2524;54.364;10.072;2023-07-22T01:59:45;2.73;;;2.60;;
5010;SDS011;2524;54.364;10.072;2023-07-22T02:02:11;2.77;;;2.57;;
5010;SDS011;2524;54.364;10.072;2023-07-22T02:04:36;3.20;;;3.00;;
5010;SDS011;2524;54.364;10.072;2023-07-22T02:07:02;3.50;;;3.17;;
5010;SDS011;2524;54.364;10.072;2023-07-22T02:09:28;2.50;;;2.30;;
5010;SDS011;2524;54.364;10.072;2023-07-22T02:11:53;2.70;;;2.50;;
5010;SDS011;2524;54.364;10.072;2023-07-22T02:14:19;3.43;;;2.90;;
5010;SDS011;2524;54.364;10.072;2023-07-22T02:16:45;3.17;;;2.97;;
5010;SDS011;2524;54.364;10.072;2023-07-22T02:19:10;2.67;;;2.43;;
5010;SDS011;2524;54.364;10.072;2023-07-22T02:21:36;2.70;;;2.50;;
5010;SDS011;2524;54.364;10.072;2023-07-22T02:24:01;2.67;;;2.57;;
5010;SDS011;2524;54.364;10.072;2023-07-22T02:26:27;3.47;;;2.77;;
5010;SDS011;2524;54.364;10.072;2023-07-22T02:28:53;2.80;;;2.70;;
5010;SDS011;2524;54.364;10.072;2023-07-22T02:31:19;3.13;;;2.83;;
5010;SDS011;2524;54.364;10.072;2023-07-22T02:33:47;2.50;;;2.33;;
5010;SDS011;2524;54.364;10.072;2023-07-22T02:36:12;3.43;;;2.47;;
5010;SDS011;2524;54.364;10.072;2023-07-22T02:38:38;2.53;;;2.33;;
5010;SDS011;2524;54.364;10.072;2023-07-22T02:41:04;2.70;;;2.50;;
5010;SDS011;2524;54.364;10.072;2023-07-22T02:43:32;2.30;;;2.20;;
5010;SDS011;2524;54.364;10.072;2023-07-22T02:46:02;4.67;;;2.63;;
5010;SDS011;2524;54.364;10.072;2023-07-22T02:48:29;2.27;;;2.10;;
5010;SDS011;2524;54.364;10.072;2023-07-22T02:51:01;3.07;;;2.77;;
5010;SDS011;2524;54.364;10.072;2023-07-22T02:53:34;2.93;;;2.73;;
5010;SDS011;2524;54.364;10.072;2023-07-22T02:56:02;2.43;;;2.33;;
5010;SDS011;2524;54.364;10.072;2023-07-22T02:58:28;3.13;;;2.40;;
5010;SDS011;2524;54.364;10.072;2023-07-22T03:00:53;2.67;;;2.47;;
5010;SDS011;2524;54.364;10.072;2023-07-22T03:03:19;2.37;;;2.27;;
5010;SDS011;2524;54.364;10.072;2023-07-22T03:05:44;2.67;;;2.53;;
5010;SDS011;2524;54.364;10.072;2023-07-22T03:08:10;4.30;;;2.63;;
5010;SDS011;2524;54.364;10.072;2023-07-22T03:10:36;3.23;;;2.80;;
5010;SDS011;2524;54.364;10.072;2023-07-22T03:13:01;2.20;;;2.10;;
5010;SDS011;2524;54.364;10.072;2023-07-22T03:15:28;3.07;;;2.77;;
5010;SDS011;2524;54.364;10.072;2023-07-22T03:17:54;3.50;;;3.20;;
5010;SDS011;2524;54.364;10.072;2023-07-22T03:20:21;2.60;;;2.40;;
5010;SDS011;2524;54.364;10.072;2023-07-22T03:22:49;3.43;;;3.20;;
5010;SDS011;2524;54.364;10.072;2023-07-22T03:25:15;2.50;;;2.40;;
5010;SDS011;2524;54.364;10.072;2023-07-22T03:27:45;2.60;;;2.47;;
5010;SDS011;2524;54.364;10.072;2023-07-22T03:30:13;3.33;;;3.03;;
5010;SDS011;2524;54.364;10.072;2023-07-22T03:32:43;2.30;;;2.20;;
5010;SDS011;2524;54.364;10.072;2023-07-22T03:35:10;2.57;;;2.43;;
5010;SDS011;2524;54.364;10.072;2023-07-22T03:37:36;2.07;;;2.00;;
5010;SDS011;2524;54.364;10.072;2023-07-22T03:40:03;3.00;;;2.80;;
5010;SDS011;2524;54.364;10.072;2023-07-22T03:42:32;2.37;;;2.17;;
5010;SDS011;2524;54.364;10.072;2023-07-22T03:44:58;2.20;;;2.10;;
5010;SDS011;2524;54.364;10.072;2023-07-22T03:47:24;2.20;;;2.10;;
5010;SDS011;2524;54.364;10.072;2023-07-22T03:49:50;2.10;;;2.00;;
5010;SDS011;2524;54.364;10.072;2023-07-22T03:52:16;3.23;;;2.20;;
5010;SDS011;2524;54.364;10.072;2023-07-22T03:54:43;2.10;;;2.00;;
5010;SDS011;2524;54.364;10.072;2023-07-22T03:57:09;2.30;;;2.20;;
5010;SDS011;2524;54.364;10.072;2023-07-22T03:59:35;2.20;;;2.10;;
5010;SDS011;2524;54.364;10.072;2023-07-22T04:02:00;2.90;;;2.70;;
5010;SDS011;2524;54.364;10.072;2023-07-22T04:04:26;3.10;;;2.40;;
5010;SDS011;2524;54.364;10.072;2023-07-22T04:06:52;1.90;;;1.90;;
5010;SDS011;2524;54.364;10.072;2023-07-22T04:09:18;2.37;;;2.17;;
5010;SDS011;2524;54.364;10.072;2023-07-22T04:11:43;1.77;;;1.77;;
5010;SDS011;2524;54.364;10.072;2023-07-22T04:14:09;2.30;;;2.20;;
5010;SDS011;2524;54.364;10.072;2023-07-22T04:16:34;3.13;;;2.67;;
5010;SDS011;2524;54.364;10.072;2023-07-22T04:19:00;3.10;;;2.80;;
5010;SDS011;2524;54.364;10.072;2023-07-22T04:21:26;2.20;;;2.10;;
5010;SDS011;2524;54.364;10.072;2023-07-22T04:23:51;2.20;;;2.10;;
5010;SDS011;2524;54.364;10.072;2023-07-22T04:26:18;2.10;;;2.00;;
5010;SDS011;2524;54.364;10.072;2023-07-22T04:28:44;3.33;;;2.57;;
5010;SDS011;2524;54.364;10.072;2023-07-22T04:31:09;2.87;;;2.67;;
5010;SDS011;2524;54.364;10.072;2023-07-22T04:33:35;2.93;;;2.80;;
5010;SDS011;2524;54.364;10.072;2023-07-22T04:36:00;2.90;;;2.70;;
5010;SDS011;2524;54.364;10.072;2023-07-22T04:38:26;2.80;;;2.63;;
5010;SDS011;2524;54.364;10.072;2023-07-22T04:40:52;2.60;;;2.50;;
5010;SDS011;2524;54.364;10.072;2023-07-22T04:43:17;2.70;;;2.50;;
5010;SDS011;2524;54.364;10.072;2023-07-22T04:45:46;2.60;;;2.40;;
5010;SDS011;2524;54.364;10.072;2023-07-22T04:48:15;2.83;;;2.63;;
5010;SDS011;2524;54.364;10.072;2023-07-22T04:50:41;3.37;;;3.00;;
5010;SDS011;2524;54.364;10.072;2023-07-22T04:53:09;2.87;;;2.77;;
5010;SDS011;2524;54.364;10.072;2023-07-22T04:55:38;2.57;;;2.47;;
5010;SDS011;2524;54.364;10.072;2023-07-22T04:58:03;2.60;;;2.40;;
5010;SDS011;2524;54.364;10.072;2023-07-22T05:00:29;3.57;;;2.33;;
5010;SDS011;2524;54.364;10.072;2023-07-22T05:02:55;3.00;;;2.80;;
5010;SDS011;2524;54.364;10.072;2023-07-22T05:05:21;2.60;;;2.33;;
5010;SDS011;2524;54.364;10.072;2023-07-22T05:07:47;2.50;;;2.40;;
5010;SDS011;2524;54.364;10.072;2023-07-22T05:10:14;2.40;;;2.30;;
5010;SDS011;2524;54.364;10.072;2023-07-22T05:12:40;2.63;;;2.50;;
5010;SDS011;2524;54.364;10.072;2023-07-22T05:15:07;2.57;;;2.47;;
5010;SDS011;2524;54.364;10.072;2023-07-22T05:17:34;2.40;;;2.30;;
5010;SDS011;2524;54.364;10.072;2023-07-22T05:20:00;2.53;;;2.33;;
5010;SDS011;2524;54.364;10.072;2023-07-22T05:22:25;2.13;;;2.00;;
5010;SDS011;2524;54.364;10.072;2023-07-22T05:24:51;2.40;;;2.30;;
5010;SDS011;2524;54.364;10.072;2023-07-22T05:27:17;5.00;;;2.50;;
5010;SDS011;2524;54.364;10.072;2023-07-22T05:29:43;2.17;;;2.07;;
5010;SDS011;2524;54.364;10.072;2023-07-22T05:32:09;2.37;;;2.27;;
5010;SDS011;2524;54.364;10.072;2023-07-22T05:34:35;2.70;;;2.50;;
5010;SDS011;2524;54.364;10.072;2023-07-22T05:37:00;2.60;;;2.40;;
5010;SDS011;2524;54.364;10.072;2023-07-22T05:39:26;2.20;;;2.10;;
5010;SDS011;2524;54.364;10.072;2023-07-22T05:41:51;2.97;;;2.10;;
5010;SDS011;2524;54.364;10.072;2023-07-22T05:44:17;1.60;;;1.50;;
5010;SDS011;2524;54.364;10.072;2023-07-22T05:46:43;2.00;;;1.90;;
5010;SDS011;2524;54.364;10.072;2023-07-22T05:49:08;1.67;;;1.67;;
5010;SDS011;2524;54.364;10.072;2023-07-22T05:51:35;1.63;;;1.63;;
5010;SDS011;2524;54.364;10.072;2023-07-22T05:54:01;2.17;;;1.97;;
5010;SDS011;2524;54.364;10.072;2023-07-22T05:56:26;2.00;;;1.90;;
5010;SDS011;2524;54.364;10.072;2023-07-22T05:58:52;1.73;;;1.67;;
5010;SDS011;2524;54.364;10.072;2023-07-22T06:01:17;1.67;;;1.60;;
5010;SDS011;2524;54.364;10.072;2023-07-22T06:03:43;1.60;;;1.50;;
5010;SDS011;2524;54.364;10.072;2023-07-22T06:06:09;4.30;;;1.57;;
5010;SDS011;2524;54.364;10.072;2023-07-22T06:08:35;1.70;;;1.60;;
5010;SDS011;2524;54.364;10.072;2023-07-22T06:11:00;1.23;;;1.23;;
5010;SDS011;2524;54.364;10.072;2023-07-22T06:13:26;1.53;;;1.43;;
5010;SDS011;2524;54.364;10.072;2023-07-22T06:15:52;1.13;;;1.13;;
5010;SDS011;2524;54.364;10.072;2023-07-22T06:18:17;1.20;;;1.20;;
5010;SDS011;2524;54.364;10.072;2023-07-22T06:20:43;1.50;;;1.40;;
5010;SDS011;2524;54.364;10.072;2023-07-22T06:23:09;1.30;;;1.20;;
5010;SDS011;2524;54.364;10.072;2023-07-22T06:25:35;1.10;;;1.10;;
5010;SDS011;2524;54.364;10.072;2023-07-22T06:28:00;1.07;;;1.07;;
5010;SDS011;2524;54.364;10.072;2023-07-22T06:30:26;3.47;;;1.60;;
5010;SDS011;2524;54.364;10.072;2023-07-22T06:32:52;1.20;;;1.20;;
5010;SDS011;2524;54.364;10.072;2023-07-22T06:35:18;1.23;;;1.23;;
5010;SDS011;2524;54.364;10.072;2023-07-22T06:37:43;1.30;;;1.20;;
5010;SDS011;2524;54.364;10.072;2023-07-22T06:40:09;1.70;;;1.60;;
5010;SDS011;2524;54.364;10.072;2023-07-22T06:42:35;1.50;;;1.50;;
5010;SDS011;2524;54.364;10.072;2023-07-22T06:45:01;1.43;;;1.33;;
5010;SDS011;2524;54.364;10.072;2023-07-22T06:47:27;1.97;;;1.87;;
5010;SDS011;2524;54.364;10.072;2023-07-22T06:49:53;1.33;;;1.33;;
5010;SDS011;2524;54.364;10.072;2023-07-22T06:52:18;1.43;;;1.43;;
5010;SDS011;2524;54.364;10.072;2023-07-22T06:54:44;1.20;;;1.10;;
5010;SDS011;2524;54.364;10.072;2023-07-22T06:57:09;1.03;;;1.03;;
5010;SDS011;2524;54.364;10.072;2023-07-22T06:59:35;1.03;;;1.03;;
5010;SDS011;2524;54.364;10.072;2023-07-22T07:02:01;1.10;;;1.00;;
5010;SDS011;2524;54.364;10.072;2023-07-22T07:04:27;1.00;;;1.00;;
5010;SDS011;2524;54.364;10.072;2023-07-22T07:06:53;1.10;;;1.10;;
5010;SDS011;2524;54.364;10.072;2023-07-22T07:09:19;0.87;;;0.87;;
5010;SDS011;2524;54.364;10.072;2023-07-22T07:11:44;1.80;;;1.10;;
5010;SDS011;2524;54.364;10.072;2023-07-22T07:14:10;0.83;;;0.83;;
5010;SDS011;2524;54.364;10.072;2023-07-22T07:16:36;0.90;;;0.90;;
5010;SDS011;2524;54.364;10.072;2023-07-22T07:19:01;1.27;;;1.00;;
5010;SDS011;2524;54.364;10.072;2023-07-22T07:21:27;1.27;;;1.17;;
5010;SDS011;2524;54.364;10.072;2023-07-22T07:23:53;0.93;;;0.93;;
5010;SDS011;2524;54.364;10.072;2023-07-22T07:26:19;1.03;;;1.03;;
5010;SDS011;2524;54.364;10.072;2023-07-22T07:28:46;1.27;;;0.80;;
5010;SDS011;2524;54.364;10.072;2023-07-22T07:31:12;1.07;;;0.93;;
5010;SDS011;2524;54.364;10.072;2023-07-22T07:33:38;1.03;;;1.03;;
5010;SDS011;2524;54.364;10.072;2023-07-22T07:36:03;0.70;;;0.70;;
5010;SDS011;2524;54.364;10.072;2023-07-22T07:38:29;1.00;;;1.00;;
5010;SDS011;2524;54.364;10.072;2023-07-22T07:40:56;1.13;;;1.07;;
5010;SDS011;2524;54.364;10.072;2023-07-22T07:43:23;1.20;;;1.20;;
5010;SDS011;2524;54.364;10.072;2023-07-22T07:45:49;1.00;;;1.00;;
5010;SDS011;2524;54.364;10.072;2023-07-22T07:48:15;1.20;;;1.10;;
5010;SDS011;2524;54.364;10.072;2023-07-22T07:50:41;1.40;;;1.30;;
5010;SDS011;2524;54.364;10.072;2023-07-22T07:53:08;1.40;;;1.40;;
5010;SDS011;2524;54.364;10.072;2023-07-22T07:55:33;1.20;;;1.20;;
5010;SDS011;2524;54.364;10.072;2023-07-22T07:57:59;2.90;;;1.40;;
5010;SDS011;2524;54.364;10.072;2023-07-22T08:00:24;1.30;;;1.20;;
5010;SDS011;2524;54.364;10.072;2023-07-22T08:02:50;1.77;;;1.03;;
5010;SDS011;2524;54.364;10.072;2023-07-22T08:05:15;1.43;;;1.00;;
5010;SDS011;2524;54.364;10.072;2023-07-22T08:07:41;0.80;;;0.80;;
5010;SDS011;2524;54.364;10.072;2023-07-22T08:10:07;0.97;;;0.97;;
5010;SDS011;2524;54.364;10.072;2023-07-22T08:12:34;3.53;;;1.23;;
5010;SDS011;2524;54.364;10.072;2023-07-22T08:15:00;1.00;;;0.97;;
5010;SDS011;2524;54.364;10.072;2023-07-22T08:17:26;1.77;;;1.27;;
5010;SDS011;2524;54.364;10.072;2023-07-22T08:19:52;1.43;;;1.20;;
5010;SDS011;2524;54.364;10.072;2023-07-22T08:22:17;1.23;;;1.13;;
5010;SDS011;2524;54.364;10.072;2023-07-22T08:24:43;0.87;;;0.87;;
5010;SDS011;2524;54.364;10.072;2023-07-22T08:27:09;4.73;;;1.50;;
5010;SDS011;2524;54.364;10.072;2023-07-22T08:29:34;2.03;;;0.90;;
5010;SDS011;2524;54.364;10.072;2023-07-22T08:32:00;2.93;;;1.43;;
5010;SDS011;2524;54.364;10.072;2023-07-22T08:34:26;1.20;;;1.10;;
5010;SDS011;2524;54.364;10.072;2023-07-22T08:36:52;0.97;;;0.80;;
5010;SDS011;2524;54.364;10.072;2023-07-22T08:39:18;1.10;;;1.10;;
5010;SDS011;2524;54.364;10.072;2023-07-22T08:41:45;1.20;;;1.03;;
5010;SDS011;2524;54.364;10.072;2023-07-22T08:44:15;1.27;;;1.17;;
5010;SDS011;2524;54.364;10.072;2023-07-22T08:46:43;1.80;;;1.00;;
5010;SDS011;2524;54.364;10.072;2023-07-22T08:49:11;1.47;;;1.03;;
5010;SDS011;2524;54.364;10.072;2023-07-22T08:51:36;1.50;;;0.87;;
5010;SDS011;2524;54.364;10.072;2023-07-22T08:54:02;1.17;;;1.17;;
5010;SDS011;2524;54.364;10.072;2023-07-22T08:56:28;1.63;;;1.20;;
5010;SDS011;2524;54.364;10.072;2023-07-22T08:58:54;1.33;;;1.20;;
5010;SDS011;2524;54.364;10.072;2023-07-22T09:01:21;1.40;;;1.30;;
5010;SDS011;2524;54.364;10.072;2023-07-22T09:03:49;3.60;;;1.40;;
5010;SDS011;2524;54.364;10.072;2023-07-22T09:06:18;2.50;;;1.10;;
5010;SDS011;2524;54.364;10.072;2023-07-22T09:08:44;1.20;;;1.03;;
5010;SDS011;2524;54.364;10.072;2023-07-22T09:11:10;1.13;;;1.13;;
5010;SDS011;2524;54.364;10.072;2023-07-22T09:13:36;0.80;;;0.80;;
5010;SDS011;2524;54.364;10.072;2023-07-22T09:16:04;0.90;;;0.90;;
5010;SDS011;2524;54.364;10.072;2023-07-22T09:18:32;1.10;;;1.10;;
5010;SDS011;2524;54.364;10.072;2023-07-22T09:20:59;1.30;;;1.20;;
5010;SDS011;2524;54.364;10.072;2023-07-22T09:23:31;1.93;;;0.97;;
5010;SDS011;2524;54.364;10.072;2023-07-22T09:26:10;1.13;;;1.03;;
5010;SDS011;2524;54.364;10.072;2023-07-22T09:28:53;1.53;;;1.13;;
5010;SDS011;2524;54.364;10.072;2023-07-22T09:31:20;1.10;;;1.10;;
5010;SDS011;2524;54.364;10.072;2023-07-22T09:33:47;1.37;;;1.10;;
5010;SDS011;2524;54.364;10.072;2023-07-22T09:36:13;1.37;;;1.07;;
5010;SDS011;2524;54.364;10.072;2023-07-22T09:38:39;1.17;;;1.07;;
5010;SDS011;2524;54.364;10.072;2023-07-22T09:41:05;2.00;;;1.40;;
5010;SDS011;2524;54.364;10.072;2023-07-22T09:43:31;1.33;;;0.97;;
5010;SDS011;2524;54.364;10.072;2023-07-22T09:46:10;0.73;;;0.73;;
5010;SDS011;2524;54.364;10.072;2023-07-22T09:48:40;1.73;;;0.90;;
5010;SDS011;2524;54.364;10.072;2023-07-22T09:51:10;1.50;;;0.93;;
5010;SDS011;2524;54.364;10.072;2023-07-22T09:53:37;0.93;;;0.93;;
5010;SDS011;2524;54.364;10.072;2023-07-22T09:56:05;1.43;;;1.00;;
5010;SDS011;2524;54.364;10.072;2023-07-22T09:58:31;1.30;;;1.20;;
5010;SDS011;2524;54.364;10.072;2023-07-22T10:00:58;0.90;;;0.90;;
5010;SDS011;2524;54.364;10.072;2023-07-22T10:03:26;0.80;;;0.80;;
5010;SDS011;2524;54.364;10.072;2023-07-22T10:05:54;1.53;;;0.90;;
5010;SDS011;2524;54.364;10.072;2023-07-22T10:08:20;0.97;;;0.97;;
5010;SDS011;2524;54.364;10.072;2023-07-22T10:10:50;1.23;;;0.90;;
5010;SDS011;2524;54.364;10.072;2023-07-22T10:13:18;0.93;;;0.93;;
5010;SDS011;2524;54.364;10.072;2023-07-22T10:15:44;1.30;;;1.20;;
5010;SDS011;2524;54.364;10.072;2023-07-22T10:18:11;1.17;;;1.07;;
5010;SDS011;2524;54.364;10.072;2023-07-22T10:20:37;1.33;;;1.23;;
5010;SDS011;2524;54.364;10.072;2023-07-22T10:23:03;0.93;;;0.80;;
5010;SDS011;2524;54.364;10.072;2023-07-22T10:25:29;1.00;;;1.00;;
5010;SDS011;2524;54.364;10.072;2023-07-22T10:27:55;1.87;;;1.17;;
5010;SDS011;2524;54.364;10.072;2023-07-22T10:30:21;0.80;;;0.70;;
5010;SDS011;2524;54.364;10.072;2023-07-22T10:32:51;6.10;;;1.10;;
5010;SDS011;2524;54.364;10.072;2023-07-22T10:35:22;1.10;;;1.00;;
5010;SDS011;2524;54.364;10.072;2023-07-22T10:38:09;0.90;;;0.90;;
5010;SDS011;2524;54.364;10.072;2023-07-22T10:40:46;2.40;;;1.03;;
5010;SDS011;2524;54.364;10.072;2023-07-22T10:43:16;1.40;;;0.97;;
5010;SDS011;2524;54.364;10.072;2023-07-22T10:45:43;1.10;;;1.00;;
5010;SDS011;2524;54.364;10.072;2023-07-22T10:48:27;0.80;;;0.80;;
5010;SDS011;2524;54.364;10.072;2023-07-22T10:51:04;0.83;;;0.83;;
5010;SDS011;2524;54.364;10.072;2023-07-22T10:53:31;1.03;;;1.00;;
5010;SDS011;2524;54.364;10.072;2023-07-22T10:58:33;0.80;;;0.80;;
5010;SDS011;2524;54.364;10.072;2023-07-22T11:09:34;1.03;;;0.93;;
5010;SDS011;2524;54.364;10.072;2023-07-22T11:14:50;0.90;;;0.90;;
5010;SDS011;2524;54.364;10.072;2023-07-22T11:17:18;1.40;;;1.30;;
5010;SDS011;2524;54.364;10.072;2023-07-22T11:19:54;1.17;;;1.07;;
5010;SDS011;2524;54.364;10.072;2023-07-22T11:22:20;1.00;;;0.90;;
5010;SDS011;2524;54.364;10.072;2023-07-22T11:24:46;1.03;;;0.83;;
5010;SDS011;2524;54.364;10.072;2023-07-22T11:27:12;1.20;;;1.10;;
5010;SDS011;2524;54.364;10.072;2023-07-22T11:29:37;0.83;;;0.80;;
5010;SDS011;2524;54.364;10.072;2023-07-22T11:32:04;1.30;;;1.20;;
5010;SDS011;2524;54.364;10.072;2023-07-22T11:34:30;2.10;;;1.10;;
5010;SDS011;2524;54.364;10.072;2023-07-22T11:36:56;1.10;;;1.00;;
5010;SDS011;2524;54.364;10.072;2023-07-22T11:39:24;1.00;;;1.00;;
5010;SDS011;2524;54.364;10.072;2023-07-22T11:41:51;0.80;;;0.80;;
5010;SDS011;2524;54.364;10.072;2023-07-22T11:44:19;0.90;;;0.90;;
5010;SDS011;2524;54.364;10.072;2023-07-22T11:46:53;1.60;;;1.00;;
5010;SDS011;2524;54.364;10.072;2023-07-22T11:49:27;1.30;;;1.07;;
5010;SDS011;2524;54.364;10.072;2023-07-22T11:51:56;0.80;;;0.77;;
5010;SDS011;2524;54.364;10.072;2023-07-22T11:54:26;1.00;;;1.00;;
5010;SDS011;2524;54.364;10.072;2023-07-22T11:56:52;0.90;;;0.90;;
5010;SDS011;2524;54.364;10.072;2023-07-22T11:59:31;1.37;;;1.00;;
5010;SDS011;2524;54.364;10.072;2023-07-22T12:02:01;1.00;;;1.00;;
5010;SDS011;2524;54.364;10.072;2023-07-22T12:04:30;0.70;;;0.70;;
5010;SDS011;2524;54.364;10.072;2023-07-22T12:06:56;6.83;;;1.10;;
5010;SDS011;2524;54.364;10.072;2023-07-22T12:09:22;1.10;;;1.10;;
5010;SDS011;2524;54.364;10.072;2023-07-22T12:11:49;1.10;;;1.10;;
5010;SDS011;2524;54.364;10.072;2023-07-22T12:14:23;1.50;;;1.40;;
5010;SDS011;2524;54.364;10.072;2023-07-22T12:16:53;0.90;;;0.90;;
5010;SDS011;2524;54.364;10.072;2023-07-22T12:19:23;1.87;;;0.97;;
5010;SDS011;2524;54.364;10.072;2023-07-22T12:21:49;1.03;;;0.97;;
5010;SDS011;2524;54.364;10.072;2023-07-22T12:24:15;1.20;;;1.10;;
5010;SDS011;2524;54.364;10.072;2023-07-22T12:26:40;0.90;;;0.90;;
5010;SDS011;2524;54.364;10.072;2023-07-22T12:29:07;0.80;;;0.80;;
5010;SDS011;2524;54.364;10.072;2023-07-22T12:31:33;1.23;;;1.13;;
5010;SDS011;2524;54.364;10.072;2023-07-22T12:33:59;1.00;;;1.00;;
5010;SDS011;2524;54.364;10.072;2023-07-22T12:36:24;1.27;;;1.10;;
5010;SDS011;2524;54.364;10.072;2023-07-22T12:38:50;0.90;;;0.90;;
5010;SDS011;2524;54.364;10.072;2023-07-22T12:41:16;1.00;;;1.00;;
5010;SDS011;2524;54.364;10.072;2023-07-22T12:43:41;1.00;;;1.00;;
5010;SDS011;2524;54.364;10.072;2023-07-22T12:46:07;0.87;;;0.87;;
5010;SDS011;2524;54.364;10.072;2023-07-22T12:48:32;1.00;;;1.00;;
5010;SDS011;2524;54.364;10.072;2023-07-22T12:50:58;0.90;;;0.90;;
5010;SDS011;2524;54.364;10.072;2023-07-22T12:53:24;1.20;;;1.10;;
5010;SDS011;2524;54.364;10.072;2023-07-22T12:55:50;1.20;;;1.10;;
5010;SDS011;2524;54.364;10.072;2023-07-22T12:58:16;1.73;;;0.87;;
5010;SDS011;2524;54.364;10.072;2023-07-22T13:00:41;1.10;;;1.00;;
5010;SDS011;2524;54.364;10.072;2023-07-22T13:03:07;1.30;;;1.20;;
5010;SDS011;2524;54.364;10.072;2023-07-22T13:05:32;0.83;;;0.83;;
5010;SDS011;2524;54.364;10.072;2023-07-22T13:07:58;0.90;;;0.90;;
5010;SDS011;2524;54.364;10.072;2023-07-22T13:10:26;0.80;;;0.80;;
5010;SDS011;2524;54.364;10.072;2023-07-22T13:12:56;0.80;;;0.80;;
5010;SDS011;2524;54.364;10.072;2023-07-22T13:15:22;1.07;;;1.03;;
5010;SDS011;2524;54.364;10.072;2023-07-22T13:17:47;0.90;;;0.90;;
5010;SDS011;2524;54.364;10.072;2023-07-22T13:20:13;0.97;;;0.97;;
5010;SDS011;2524;54.364;10.072;2023-07-22T13:22:39;1.63;;;0.90;;
5010;SDS011;2524;54.364;10.072;2023-07-22T13:25:05;1.13;;;1.03;;
5010;SDS011;2524;54.364;10.072;2023-07-22T13:27:31;1.10;;;1.10;;
5010;SDS011;2524;54.364;10.072;2023-07-22T13:29:56;1.50;;;1.37;;
5010;SDS011;2524;54.364;10.072;2023-07-22T13:32:22;1.30;;;1.30;;
5010;SDS011;2524;54.364;10.072;2023-07-22T13:34:48;1.30;;;1.30;;
5010;SDS011;2524;54.364;10.072;2023-07-22T13:37:13;1.03;;;1.00;;
5010;SDS011;2524;54.364;10.072;2023-07-22T13:39:39;0.97;;;0.97;;
5010;SDS011;2524;54.364;10.072;2023-07-22T13:42:05;1.40;;;1.30;;
5010;SDS011;2524;54.364;10.072;2023-07-22T13:44:30;1.90;;;1.27;;
5010;SDS011;2524;54.364;10.072;2023-07-22T13:46:56;1.00;;;1.00;;
5010;SDS011;2524;54.364;10.072;2023-07-22T13:49:22;1.60;;;1.50;;
5010;SDS011;2524;54.364;10.072;2023-07-22T13:51:47;1.50;;;1.40;;
5010;SDS011;2524;54.364;10.072;2023-07-22T13:54:13;1.10;;;1.10;;
5010;SDS011;2524;54.364;10.072;2023-07-22T13:56:38;1.47;;;1.37;;
5010;SDS011;2524;54.364;10.072;2023-07-22T13:59:04;1.60;;;1.50;;
5010;SDS011;2524;54.364;10.072;2023-07-22T14:01:30;2.20;;;2.00;;
5010;SDS011;2524;54.364;10.072;2023-07-22T14:03:56;2.00;;;1.83;;
5010;SDS011;2524;54.364;10.072;2023-07-22T14:06:22;2.57;;;2.10;;
5010;SDS011;2524;54.364;10.072;2023-07-22T14:08:48;2.20;;;2.10;;
5010;SDS011;2524;54.364;10.072;2023-07-22T14:11:13;2.20;;;2.10;;
5010;SDS011;2524;54.364;10.072;2023-07-22T14:13:39;2.03;;;1.93;;
5010;SDS011;2524;54.364;10.072;2023-07-22T14:16:04;2.37;;;2.17;;
5010;SDS011;2524;54.364;10.072;2023-07-22T14:18:30;2.37;;;2.27;;
5010;SDS011;2524;54.364;10.072;2023-07-22T14:20:55;2.07;;;1.97;;
5010;SDS011;2524;54.364;10.072;2023-07-22T14:23:21;2.10;;;2.00;;
5010;SDS011;2524;54.364;10.072;2023-07-22T14:25:46;2.10;;;2.00;;
5010;SDS011;2524;54.364;10.072;2023-07-22T14:28:12;2.80;;;2.57;;
5010;SDS011;2524;54.364;10.072;2023-07-22T14:30:38;2.53;;;2.33;;
5010;SDS011;2524;54.364;10.072;2023-07-22T14:33:03;2.90;;;2.70;;
5010;SDS011;2524;54.364;10.072;2023-07-22T14:35:29;2.50;;;2.30;;
5010;SDS011;2524;54.364;10.072;2023-07-22T14:37:57;2.30;;;2.20;;
5010;SDS011;2524;54.364;10.072;2023-07-22T14:40:23;3.10;;;2.90;;
5010;SDS011;2524;54.364;10.072;2023-07-22T14:42:50;3.07;;;2.80;;
5010;SDS011;2524;54.364;10.072;2023-07-22T14:45:15;3.40;;;3.20;;
5010;SDS011;2524;54.364;10.072;2023-07-22T14:47:41;3.27;;;2.97;;
5010;SDS011;2524;54.364;10.072;2023-07-22T14:50:07;2.90;;;2.80;;
5010;SDS011;2524;54.364;10.072;2023-07-22T14:52:33;2.73;;;2.50;;
5010;SDS011;2524;54.364;10.072;2023-07-22T14:54:58;2.53;;;2.43;;
5010;SDS011;2524;54.364;10.072;2023-07-22T14:57:24;2.20;;;2.10;;
5010;SDS011;2524;54.364;10.072;2023-07-22T14:59:54;2.80;;;2.70;;
5010;SDS011;2524;54.364;10.072;2023-07-22T15:02:22;2.37;;;2.27;;
5010;SDS011;2524;54.364;10.072;2023-07-22T15:04:48;3.10;;;2.90;;
5010;SDS011;2524;54.364;10.072;2023-07-22T15:07:13;2.77;;;2.60;;
5010;SDS011;2524;54.364;10.072;2023-07-22T15:09:39;3.10;;;2.90;;